createdAt,value
2019-06-20T00:00:48.601Z,95.13
2019-06-20T00:01:48.603Z,94.33
2019-06-20T00:02:48.580Z,95.03
2019-06-20T00:03:48.578Z,95.23
2019-06-20T00:04:48.642Z,94.83
2019-06-20T00:05:48.556Z,94.83
2019-06-20T00:06:48.554Z,95.03
2019-06-20T00:07:48.525Z,95.84
2019-06-20T00:08:48.516Z,95.53
2019-06-20T00:09:48.503Z,94.83
2019-06-20T00:10:48.502Z,94.93
2019-06-20T00:11:48.482Z,94.43
2019-06-20T00:13:00.013Z,93.32
2019-06-20T00:13:49.460Z,92.27
2019-06-20T00:14:48.448Z,92.17
2019-06-20T00:15:48.775Z,94.08
2019-06-20T00:16:48.427Z,94.28
2019-06-20T00:17:48.418Z,93.68
2019-06-20T00:18:48.408Z,93.58
2019-06-20T00:19:48.395Z,93.93
2019-06-20T00:20:48.395Z,94.23
2019-06-20T00:21:48.375Z,93.82
2019-06-20T00:22:48.362Z,94.93
2019-06-20T00:23:48.354Z,94.73
2019-06-20T00:24:48.348Z,95.18
2019-06-20T00:25:48.341Z,95.78
2019-06-20T00:26:48.322Z,95.98
2019-06-20T00:27:48.313Z,96.08
2019-06-20T00:28:48.296Z,96.08
2019-06-20T00:29:49.243Z,96.08
2019-06-20T00:30:49.260Z,96.19
2019-06-20T00:31:48.349Z,96.13
2019-06-20T00:32:48.522Z,96.33
2019-06-20T00:33:48.241Z,96.93
2019-06-20T00:34:48.456Z,97.03
2019-06-20T00:35:48.334Z,97.44
2019-06-20T00:36:51.237Z,97.64
2019-06-20T00:37:48.296Z,97.89
2019-06-20T00:38:48.198Z,98.24
2019-06-20T00:39:48.268Z,99.25
2019-06-20T00:40:48.220Z,97.74
2019-06-20T00:41:48.263Z,97.33
2019-06-20T00:42:48.265Z,96.53
2019-06-20T00:43:48.142Z,96.63
2019-06-20T00:44:48.172Z,96.73
2019-06-20T00:45:48.227Z,96.63
2019-06-20T00:46:48.154Z,96.78
2019-06-20T00:47:48.139Z,96.48
2019-06-20T00:48:48.089Z,96.48
2019-06-20T00:49:48.190Z,96.39
2019-06-20T00:50:48.101Z,96.39
2019-06-20T00:51:48.087Z,96.48
2019-06-20T00:52:48.037Z,96.28
2019-06-20T00:53:48.026Z,95.98
2019-06-20T00:54:48.013Z,96.28
2019-06-20T00:55:48.013Z,96.28
2019-06-20T00:56:47.993Z,96.14
2019-06-20T00:57:47.980Z,96.19
2019-06-20T00:58:47.969Z,95.94
2019-06-20T00:59:47.959Z,95.03
2019-06-20T01:00:47.966Z,94.63
2019-06-20T01:01:47.938Z,94.79
2019-06-20T01:02:47.932Z,94.98
2019-06-20T01:03:47.939Z,94.98
2019-06-20T01:04:47.922Z,94.18
2019-06-20T01:05:47.906Z,94.08
2019-06-20T01:06:47.886Z,94.79
2019-06-20T01:07:47.875Z,94.98
2019-06-20T01:08:47.866Z,94.18
2019-06-20T01:09:47.859Z,93.68
2019-06-20T01:10:47.859Z,93.98
2019-06-20T01:11:47.830Z,93.28
2019-06-20T01:12:47.834Z,93.08
2019-06-20T01:13:47.816Z,92.37
2019-06-20T01:14:47.797Z,93.08
2019-06-20T01:15:47.874Z,93.48
2019-06-20T01:16:47.776Z,93.08
2019-06-20T01:17:47.766Z,93.18
2019-06-20T01:18:47.761Z,93.98
2019-06-20T01:19:47.740Z,93.62
2019-06-20T01:20:47.756Z,94.79
2019-06-20T01:21:47.720Z,94.59
2019-06-20T01:22:47.708Z,94.93
2019-06-20T01:23:47.702Z,94.93
2019-06-20T01:24:47.697Z,93.93
2019-06-20T01:25:47.676Z,93.82
2019-06-20T01:26:47.701Z,93.82
2019-06-20T01:27:47.655Z,94.13
2019-06-20T01:28:47.652Z,93.82
2019-06-20T01:29:47.681Z,93.42
2019-06-20T01:30:47.657Z,93.93
2019-06-20T01:31:47.623Z,94.33
2019-06-20T01:32:47.601Z,93.52
2019-06-20T01:33:47.591Z,93.42
2019-06-20T01:34:47.582Z,93.62
2019-06-20T01:35:47.568Z,93.93
2019-06-20T01:36:47.571Z,93.42
2019-06-20T01:37:47.553Z,93.52
2019-06-20T01:38:47.537Z,94.02
2019-06-20T01:39:47.552Z,93.62
2019-06-20T01:40:47.513Z,93.32
2019-06-20T01:41:47.517Z,93.93
2019-06-20T01:42:47.492Z,94.83
2019-06-20T01:43:51.011Z,92.72
2019-06-20T01:44:47.486Z,94.73
2019-06-20T01:45:47.458Z,94.83
2019-06-20T01:46:47.458Z,93.93
2019-06-20T01:47:47.440Z,94.93
2019-06-20T01:48:47.447Z,95.23
2019-06-20T01:49:48.293Z,95.07
2019-06-20T01:50:47.407Z,94.98
2019-06-20T01:51:47.423Z,95.68
2019-06-20T01:52:47.382Z,95.48
2019-06-20T01:53:47.371Z,95.98
2019-06-20T01:54:47.362Z,95.94
2019-06-20T01:55:47.358Z,92.86
2019-06-20T01:56:47.394Z,91.31
2019-06-20T01:57:47.330Z,89.70
2019-06-20T01:58:47.423Z,89.50
2019-06-20T01:59:47.306Z,90.05
2019-06-20T02:00:47.298Z,92.66
2019-06-20T02:01:47.310Z,94.36
2019-06-20T02:02:47.274Z,96.12
2019-06-20T02:03:47.287Z,96.51
2019-06-20T02:04:47.252Z,96.61
2019-06-20T02:05:47.281Z,97.12
2019-06-20T02:06:47.243Z,97.97
2019-06-20T02:07:47.219Z,98.17
2019-06-20T02:08:47.210Z,98.37
2019-06-20T02:09:47.205Z,99.48
2019-06-20T02:10:47.215Z,99.28
2019-06-20T02:11:47.189Z,99.18
2019-06-20T02:12:47.188Z,99.18
2019-06-20T02:13:47.182Z,99.28
2019-06-20T02:14:47.146Z,99.93
2019-06-20T02:15:47.148Z,99.99
2019-06-20T02:16:47.137Z,99.99
2019-06-20T02:17:47.122Z,99.99
2019-06-20T02:18:47.109Z,99.99
2019-06-20T02:19:47.096Z,99.99
2019-06-20T02:20:47.079Z,99.99
2019-06-20T02:21:47.307Z,99.99
2019-06-20T02:22:47.060Z,99.99
2019-06-20T02:23:47.048Z,99.99
2019-06-20T02:24:47.037Z,99.99
2019-06-20T02:25:47.024Z,99.99
2019-06-20T02:26:47.027Z,99.99
2019-06-20T02:27:47.009Z,99.99
2019-06-20T02:28:46.995Z,99.99
2019-06-20T02:29:46.987Z,99.99
2019-06-20T02:30:46.978Z,99.99
2019-06-20T02:31:46.970Z,99.99
2019-06-20T02:32:46.954Z,99.99
2019-06-20T02:33:46.939Z,99.99
2019-06-20T02:34:46.937Z,99.99
2019-06-20T02:35:46.929Z,99.99
2019-06-20T02:36:46.923Z,99.99
2019-06-20T02:37:46.895Z,99.99
2019-06-20T02:38:46.884Z,99.99
2019-06-20T02:39:46.876Z,99.99
2019-06-20T02:40:46.885Z,99.99
2019-06-20T02:41:46.876Z,99.99
2019-06-20T02:42:46.846Z,99.99
2019-06-20T02:43:46.830Z,99.99
2019-06-20T02:44:46.823Z,99.99
2019-06-20T02:45:46.816Z,99.99
2019-06-20T02:46:46.798Z,99.99
2019-06-20T02:47:46.809Z,99.99
2019-06-20T02:48:46.776Z,99.99
2019-06-20T02:49:46.765Z,99.99
2019-06-20T02:50:46.753Z,99.99
2019-06-20T02:51:46.791Z,99.99
2019-06-20T02:52:46.749Z,99.99
2019-06-20T02:53:46.724Z,99.99
2019-06-20T02:54:46.748Z,99.99
2019-06-20T02:55:46.703Z,99.99
2019-06-20T02:56:46.688Z,99.99
2019-06-20T02:57:46.697Z,99.99
2019-06-20T02:58:46.667Z,99.99
2019-06-20T02:59:46.656Z,99.99
2019-06-20T03:00:46.649Z,99.99
2019-06-20T03:01:46.662Z,99.99
2019-06-20T03:02:46.641Z,99.99
2019-06-20T03:03:46.618Z,99.99
2019-06-20T03:04:46.602Z,99.99
2019-06-20T03:05:46.633Z,99.99
2019-06-20T03:06:46.580Z,99.99
2019-06-20T03:07:46.583Z,99.99
2019-06-20T03:08:46.577Z,99.99
2019-06-20T03:09:46.554Z,99.99
2019-06-20T03:10:46.540Z,99.99
2019-06-20T03:11:46.548Z,99.99
2019-06-20T03:12:46.533Z,99.99
2019-06-20T03:13:46.504Z,99.99
2019-06-20T03:14:46.496Z,99.99
2019-06-20T03:15:49.864Z,99.99
2019-06-20T03:16:46.478Z,99.99
2019-06-20T03:17:46.472Z,99.99
2019-06-20T03:18:46.453Z,99.99
2019-06-20T03:19:46.454Z,99.99
2019-06-20T03:20:46.432Z,99.99
2019-06-20T03:21:47.288Z,99.99
2019-06-20T03:22:46.808Z,99.99
2019-06-20T03:23:46.399Z,99.99
2019-06-20T03:24:47.306Z,99.99
2019-06-20T03:25:46.384Z,99.99
2019-06-20T03:26:46.363Z,99.99
2019-06-20T03:27:46.363Z,99.99
2019-06-20T03:28:46.342Z,99.99
2019-06-20T03:29:46.335Z,99.99
2019-06-20T03:30:46.335Z,99.99
2019-06-20T03:31:46.334Z,99.99
2019-06-20T03:32:46.316Z,99.99
2019-06-20T03:33:46.295Z,99.99
2019-06-20T03:34:46.280Z,99.99
2019-06-20T03:35:46.271Z,99.99
2019-06-20T03:36:46.257Z,99.99
2019-06-20T03:37:50.010Z,99.99
2019-06-20T03:38:46.244Z,99.99
2019-06-20T03:39:46.235Z,99.99
2019-06-20T03:40:46.219Z,99.99
2019-06-20T03:41:46.204Z,99.99
2019-06-20T03:42:46.203Z,99.99
2019-06-20T03:43:46.195Z,99.99
2019-06-20T03:45:01.243Z,99.99
2019-06-20T03:45:47.238Z,99.99
2019-06-20T03:46:46.156Z,99.99
2019-06-20T03:47:46.157Z,99.99
2019-06-20T03:48:46.129Z,99.99
2019-06-20T03:49:46.119Z,99.99
2019-06-20T03:50:46.107Z,99.99
2019-06-20T03:51:46.120Z,99.99
2019-06-20T03:52:46.096Z,99.99
2019-06-20T03:53:46.076Z,99.99
2019-06-20T03:54:46.063Z,99.99
2019-06-20T03:55:46.053Z,99.99
2019-06-20T03:56:46.042Z,99.99
2019-06-20T03:57:46.076Z,99.99
2019-06-20T03:58:46.021Z,99.99
2019-06-20T03:59:46.010Z,99.99
2019-06-20T04:00:45.999Z,99.99
2019-06-20T04:01:49.055Z,99.99
2019-06-20T04:02:45.980Z,99.99
2019-06-20T04:03:45.986Z,99.99
2019-06-20T04:04:45.957Z,99.99
2019-06-20T04:05:45.947Z,99.99
2019-06-20T04:06:45.936Z,99.99
2019-06-20T04:07:45.927Z,99.99
2019-06-20T04:08:45.926Z,99.99
2019-06-20T04:09:45.902Z,99.99
2019-06-20T04:10:45.892Z,99.99
2019-06-20T04:11:45.884Z,99.99
2019-06-20T04:12:45.884Z,99.99
2019-06-20T04:13:45.868Z,99.99
2019-06-20T04:14:48.897Z,99.99
2019-06-20T04:15:45.844Z,99.99
2019-06-20T04:16:45.842Z,99.99
2019-06-20T04:17:45.819Z,99.99
2019-06-20T04:18:45.820Z,99.99
2019-06-20T04:19:45.798Z,99.99
2019-06-20T04:20:45.787Z,99.99
2019-06-20T04:21:45.785Z,99.99
2019-06-20T04:22:45.764Z,99.99
2019-06-20T04:23:45.761Z,99.99
2019-06-20T04:24:45.740Z,99.99
2019-06-20T04:25:45.751Z,99.99
2019-06-20T04:26:45.722Z,99.99
2019-06-20T04:27:45.708Z,99.99
2019-06-20T04:28:45.711Z,99.99
2019-06-20T04:29:45.687Z,99.99
2019-06-20T04:30:45.682Z,99.99
2019-06-20T04:31:45.670Z,99.99
2019-06-20T04:32:45.659Z,99.99
2019-06-20T04:33:45.654Z,99.99
2019-06-20T04:34:45.633Z,99.99
2019-06-20T04:35:45.623Z,99.99
2019-06-20T04:36:48.066Z,99.99
2019-06-20T04:37:45.600Z,99.99
2019-06-20T04:38:45.600Z,99.99
2019-06-20T04:39:45.592Z,99.99
2019-06-20T04:40:45.571Z,99.99
2019-06-20T04:41:45.559Z,99.99
2019-06-20T04:42:45.545Z,99.99
2019-06-20T04:43:45.555Z,99.99
2019-06-20T04:44:45.527Z,99.99
2019-06-20T04:45:45.536Z,99.99
2019-06-20T04:46:45.502Z,99.99
2019-06-20T04:47:45.491Z,99.99
2019-06-20T04:48:45.490Z,99.99
2019-06-20T04:49:45.524Z,99.93
2019-06-20T04:50:45.463Z,99.93
2019-06-20T04:51:45.457Z,99.99
2019-06-20T04:52:45.440Z,99.99
2019-06-20T04:53:45.438Z,99.88
2019-06-20T04:54:45.417Z,99.99
2019-06-20T04:55:45.405Z,99.88
2019-06-20T04:56:45.395Z,99.99
2019-06-20T04:57:45.393Z,99.58
2019-06-20T04:58:45.383Z,98.98
2019-06-20T04:59:45.422Z,99.48
2019-06-20T05:00:45.350Z,99.08
2019-06-20T05:01:45.341Z,99.04
2019-06-20T05:02:45.334Z,99.44
2019-06-20T05:03:45.353Z,99.39
2019-06-20T05:04:45.353Z,99.08
2019-06-20T05:05:45.300Z,98.38
2019-06-20T05:06:45.333Z,98.44
2019-06-20T05:07:45.289Z,98.48
2019-06-20T05:08:45.284Z,98.24
2019-06-20T05:09:45.255Z,97.43
2019-06-20T05:10:45.253Z,97.78
2019-06-20T05:11:45.257Z,97.78
2019-06-20T05:12:45.223Z,98.08
2019-06-20T05:13:45.242Z,98.28
2019-06-20T05:14:45.205Z,98.28
2019-06-20T05:15:52.666Z,98.28
2019-06-20T05:16:46.183Z,97.93
2019-06-20T05:17:45.169Z,97.93
2019-06-20T05:18:45.185Z,98.44
2019-06-20T05:19:45.147Z,97.33
2019-06-20T05:20:45.135Z,96.92
2019-06-20T05:21:45.144Z,97.63
2019-06-20T05:22:45.117Z,97.63
2019-06-20T05:23:45.107Z,96.83
2019-06-20T05:24:45.112Z,97.78
2019-06-20T05:25:45.095Z,96.83
2019-06-20T05:26:45.074Z,96.33
2019-06-20T05:27:45.068Z,96.19
2019-06-20T05:28:45.055Z,95.98
2019-06-20T05:29:45.057Z,95.98
2019-06-20T05:30:45.036Z,96.39
2019-06-20T05:31:45.032Z,95.88
2019-06-20T05:32:45.011Z,95.28
2019-06-20T05:33:44.997Z,96.08
2019-06-20T05:34:44.996Z,95.78
2019-06-20T05:35:44.983Z,96.13
2019-06-20T05:36:44.976Z,95.93
2019-06-20T05:37:44.955Z,96.13
2019-06-20T05:38:51.981Z,95.18
2019-06-20T05:39:44.941Z,95.43
2019-06-20T05:40:44.918Z,95.13
2019-06-20T05:41:44.920Z,94.83
2019-06-20T05:42:44.900Z,94.63
2019-06-20T05:43:44.930Z,96.04
2019-06-20T05:44:44.885Z,96.04
2019-06-20T05:45:48.540Z,95.13
2019-06-20T05:46:44.876Z,95.13
2019-06-20T05:47:44.843Z,95.28
2019-06-20T05:48:44.833Z,95.07
2019-06-20T05:49:44.836Z,95.73
2019-06-20T05:50:44.811Z,96.04
2019-06-20T05:51:44.800Z,94.98
2019-06-20T05:52:44.803Z,95.38
2019-06-20T05:53:44.782Z,95.07
2019-06-20T05:54:44.791Z,95.28
2019-06-20T05:55:44.767Z,94.98
2019-06-20T05:56:44.769Z,95.28
2019-06-20T05:57:44.738Z,95.03
2019-06-20T05:58:44.728Z,95.13
2019-06-20T05:59:44.724Z,94.89
2019-06-20T06:00:44.703Z,95.18
2019-06-20T06:01:44.733Z,93.48
2019-06-20T06:02:44.732Z,93.63
2019-06-20T06:03:44.673Z,93.84
2019-06-20T06:04:44.702Z,94.94
2019-06-20T06:05:44.653Z,92.13
2019-06-20T06:06:44.642Z,93.84
2019-06-20T06:07:44.638Z,93.43
2019-06-20T06:08:44.616Z,93.54
2019-06-20T06:09:45.708Z,92.13
2019-06-20T06:10:44.598Z,92.13
2019-06-20T06:11:44.624Z,93.33
2019-06-20T06:12:45.274Z,93.23
2019-06-20T06:13:44.566Z,93.84
2019-06-20T06:14:44.565Z,94.74
2019-06-20T06:15:44.575Z,95.04
2019-06-20T06:16:44.538Z,93.48
2019-06-20T06:17:44.535Z,93.38
2019-06-20T06:18:44.542Z,92.47
2019-06-20T06:19:44.526Z,92.41
2019-06-20T06:20:45.069Z,93.78
2019-06-20T06:21:44.478Z,93.58
2019-06-20T06:22:44.883Z,92.37
2019-06-20T06:23:44.458Z,94.18
2019-06-20T06:24:44.457Z,94.28
2019-06-20T06:25:44.468Z,93.48
2019-06-20T06:26:44.431Z,94.18
2019-06-20T06:27:44.421Z,93.22
2019-06-20T06:28:44.402Z,92.52
2019-06-20T06:29:44.405Z,92.41
2019-06-20T06:30:44.381Z,93.52
2019-06-20T06:31:44.372Z,94.68
2019-06-20T06:32:44.359Z,94.28
2019-06-20T06:33:44.349Z,94.89
2019-06-20T06:34:44.391Z,94.68
2019-06-20T06:35:44.336Z,93.78
2019-06-20T06:36:44.319Z,93.88
2019-06-20T06:37:44.360Z,93.68
2019-06-20T06:38:44.294Z,93.88
2019-06-20T06:39:44.286Z,93.68
2019-06-20T06:40:44.291Z,93.88
2019-06-20T06:41:44.266Z,92.53
2019-06-20T06:42:44.390Z,94.70
2019-06-20T06:43:44.241Z,93.24
2019-06-20T06:44:44.235Z,91.24
2019-06-20T06:45:44.234Z,89.99
2019-06-20T06:46:53.166Z,89.34
2019-06-20T06:47:45.197Z,90.50
2019-06-20T06:48:44.218Z,89.66
2019-06-20T06:49:44.205Z,89.92
2019-06-20T06:50:44.182Z,89.12
2019-06-20T06:51:44.161Z,85.87
2019-06-20T06:52:44.151Z,81.81
2019-06-20T06:53:44.135Z,84.91
2019-06-20T06:54:44.123Z,82.31
2019-06-20T06:55:44.122Z,83.01
2019-06-20T06:56:44.158Z,81.74
2019-06-20T06:57:44.094Z,84.45
2019-06-20T06:58:44.080Z,84.55
2019-06-20T06:59:44.079Z,83.19
2019-06-20T07:00:44.070Z,85.69
2019-06-20T07:01:44.046Z,83.13
2019-06-20T07:02:44.038Z,85.13
2019-06-20T07:03:44.039Z,85.44
2019-06-20T07:04:44.021Z,85.58
2019-06-20T07:05:44.037Z,87.52
2019-06-20T07:06:44.001Z,87.73
2019-06-20T07:07:43.983Z,87.02
2019-06-20T07:08:43.971Z,87.02
2019-06-20T07:09:43.962Z,86.82
2019-06-20T07:10:43.965Z,88.73
2019-06-20T07:11:43.940Z,86.08
2019-06-20T07:12:43.956Z,85.17
2019-06-20T07:13:43.921Z,86.84
2019-06-20T07:14:43.909Z,87.00
2019-06-20T07:15:43.905Z,87.96
2019-06-20T07:16:50.892Z,83.99
2019-06-20T07:17:44.873Z,87.60
2019-06-20T07:18:43.905Z,85.03
2019-06-20T07:19:43.852Z,88.40
2019-06-20T07:20:43.892Z,86.94
2019-06-20T07:21:43.845Z,87.48
2019-06-20T07:22:43.820Z,86.88
2019-06-20T07:23:43.811Z,88.43
2019-06-20T07:24:43.819Z,86.62
2019-06-20T07:25:43.798Z,88.32
2019-06-20T07:26:43.778Z,88.63
2019-06-20T07:27:43.782Z,85.52
2019-06-20T07:28:43.757Z,86.62
2019-06-20T07:29:43.755Z,88.39
2019-06-20T07:30:43.745Z,87.98
2019-06-20T07:31:43.728Z,85.17
2019-06-20T07:32:43.713Z,85.08
2019-06-20T07:33:43.707Z,88.29
2019-06-20T07:34:43.691Z,91.85
2019-06-20T07:35:43.707Z,91.25
2019-06-20T07:36:43.670Z,89.20
2019-06-20T07:37:43.662Z,87.70
2019-06-20T07:38:43.650Z,86.69
2019-06-20T07:39:43.641Z,90.46
2019-06-20T07:40:43.651Z,88.56
2019-06-20T07:41:43.618Z,87.52
2019-06-20T07:42:43.639Z,84.63
2019-06-20T07:43:43.617Z,85.49
2019-06-20T07:44:43.586Z,82.69
2019-06-20T07:45:43.572Z,82.20
2019-06-20T07:46:43.575Z,84.19
2019-06-20T07:47:43.587Z,80.96
2019-06-20T07:48:43.552Z,78.17
2019-06-20T07:49:43.528Z,74.21
2019-06-20T07:50:43.519Z,75.50
2019-06-20T07:51:43.520Z,74.01
2019-06-20T07:52:57.756Z,73.55
2019-06-20T07:53:44.489Z,75.64
2019-06-20T07:54:43.669Z,74.08
2019-06-20T07:55:43.478Z,76.87
2019-06-20T07:56:43.465Z,73.31
2019-06-20T07:57:43.444Z,73.41
2019-06-20T07:58:43.437Z,72.51
2019-06-20T07:59:43.430Z,71.31
2019-06-20T08:00:43.436Z,70.22
2019-06-20T08:01:43.420Z,73.30
2019-06-20T08:02:43.390Z,71.81
2019-06-20T08:03:45.246Z,72.14
2019-06-20T08:04:43.368Z,70.75
2019-06-20T08:05:43.358Z,73.57
2019-06-20T08:06:43.358Z,72.88
2019-06-20T08:07:43.555Z,72.58
2019-06-20T08:08:43.327Z,73.47
2019-06-20T08:09:45.114Z,72.98
2019-06-20T08:10:43.307Z,71.48
2019-06-20T08:11:43.304Z,76.26
2019-06-20T08:12:43.282Z,75.46
2019-06-20T08:13:43.281Z,77.52
2019-06-20T08:14:43.262Z,74.50
2019-06-20T08:15:43.252Z,77.11
2019-06-20T08:16:43.253Z,73.33
2019-06-20T08:17:43.396Z,70.25
2019-06-20T08:18:43.219Z,66.02
2019-06-20T08:19:43.220Z,67.51
2019-06-20T08:20:43.200Z,66.49
2019-06-20T08:21:44.220Z,62.24
2019-06-20T08:22:43.177Z,63.06
2019-06-20T08:23:43.176Z,69.72
2019-06-20T08:24:43.154Z,62.82
2019-06-20T08:25:43.170Z,63.48
2019-06-20T08:26:43.143Z,64.70
2019-06-20T08:27:43.141Z,65.06
2019-06-20T08:28:43.111Z,68.27
2019-06-20T08:29:43.136Z,64.30
2019-06-20T08:30:43.098Z,69.16
2019-06-20T08:31:43.158Z,70.91
2019-06-20T08:32:43.085Z,64.17
2019-06-20T08:33:43.085Z,64.99
2019-06-20T08:34:43.052Z,67.67
2019-06-20T08:35:43.046Z,68.83
2019-06-20T08:36:43.037Z,67.87
2019-06-20T08:37:43.026Z,67.54
2019-06-20T08:38:43.007Z,71.17
2019-06-20T08:39:42.997Z,70.32
2019-06-20T08:40:42.987Z,67.68
2019-06-20T08:41:42.986Z,69.09
2019-06-20T08:42:42.966Z,68.07
2019-06-20T08:43:42.972Z,69.09
2019-06-20T08:44:42.947Z,68.99
2019-06-20T08:45:42.933Z,68.01
2019-06-20T08:46:42.933Z,71.83
2019-06-20T08:47:42.933Z,68.99
2019-06-20T08:48:42.904Z,66.36
2019-06-20T08:49:42.905Z,66.09
2019-06-20T08:50:42.885Z,62.68
2019-06-20T08:51:42.886Z,64.46
2019-06-20T08:52:42.859Z,60.58
2019-06-20T08:53:42.849Z,63.97
2019-06-20T08:54:42.839Z,60.42
2019-06-20T08:55:42.845Z,58.46
2019-06-20T08:56:42.856Z,61.83
2019-06-20T08:57:42.849Z,63.70
2019-06-20T08:58:42.796Z,60.84
2019-06-20T08:59:42.795Z,58.30
2019-06-20T09:00:42.831Z,62.41
2019-06-20T09:01:42.787Z,60.44
2019-06-20T09:02:42.765Z,62.05
2019-06-20T09:03:42.743Z,67.48
2019-06-20T09:04:42.735Z,65.37
2019-06-20T09:05:42.723Z,60.91
2019-06-20T09:06:42.713Z,58.87
2019-06-20T09:07:42.727Z,59.02
2019-06-20T09:08:42.692Z,62.84
2019-06-20T09:09:42.681Z,62.40
2019-06-20T09:10:42.670Z,60.19
2019-06-20T09:11:42.660Z,61.83
2019-06-20T09:12:42.660Z,65.82
2019-06-20T09:13:42.650Z,62.08
2019-06-20T09:14:42.629Z,63.43
2019-06-20T09:15:42.629Z,65.65
2019-06-20T09:16:42.619Z,67.57
2019-06-20T09:17:42.636Z,66.58
2019-06-20T09:18:42.587Z,66.97
2019-06-20T09:19:42.599Z,67.57
2019-06-20T09:20:42.565Z,69.23
2019-06-20T09:21:42.555Z,70.12
2019-06-20T09:22:42.560Z,73.24
2019-06-20T09:23:42.535Z,68.07
2019-06-20T09:24:42.524Z,71.45
2019-06-20T09:25:42.525Z,71.15
2019-06-20T09:26:42.503Z,68.86
2019-06-20T09:27:42.537Z,68.46
2019-06-20T09:28:42.484Z,69.66
2019-06-20T09:29:42.472Z,65.28
2019-06-20T09:30:42.463Z,65.39
2019-06-20T09:31:42.463Z,66.85
2019-06-20T09:32:42.575Z,71.48
2019-06-20T09:33:42.434Z,67.01
2019-06-20T09:34:42.420Z,67.27
2019-06-20T09:35:42.410Z,65.03
2019-06-20T09:36:42.399Z,67.57
2019-06-20T09:37:42.444Z,64.67
2019-06-20T09:38:42.378Z,62.49
2019-06-20T09:39:42.375Z,62.79
2019-06-20T09:40:42.357Z,66.06
2019-06-20T09:41:42.345Z,62.82
2019-06-20T09:42:42.345Z,67.61
2019-06-20T09:43:42.336Z,64.50
2019-06-20T09:44:42.315Z,66.65
2019-06-20T09:45:42.304Z,60.44
2019-06-20T09:46:42.295Z,63.45
2019-06-20T09:47:42.293Z,61.02
2019-06-20T09:48:42.329Z,62.45
2019-06-20T09:49:42.274Z,68.70
2019-06-20T09:50:42.252Z,67.41
2019-06-20T09:51:42.242Z,65.55
2019-06-20T09:52:42.241Z,63.17
2019-06-20T09:53:42.221Z,63.00
2019-06-20T09:54:42.214Z,65.19
2019-06-20T09:55:42.249Z,63.20
2019-06-20T09:56:42.188Z,68.40
2019-06-20T09:57:42.331Z,71.98
2019-06-20T09:58:42.167Z,69.20
2019-06-20T09:59:56.102Z,70.92
2019-06-20T10:00:43.149Z,66.05
2019-06-20T10:01:42.146Z,67.07
2019-06-20T10:02:42.138Z,70.89
2019-06-20T10:03:42.126Z,71.69
2019-06-20T10:04:42.108Z,69.46
2019-06-20T10:05:42.093Z,70.59
2019-06-20T10:06:42.084Z,69.43
2019-06-20T10:07:42.102Z,73.18
2019-06-20T10:08:42.063Z,69.92
2019-06-20T10:09:42.052Z,72.61
2019-06-20T10:10:42.039Z,72.65
2019-06-20T10:11:42.029Z,74.24
2019-06-20T10:12:42.028Z,70.26
2019-06-20T10:13:42.023Z,70.45
2019-06-20T10:14:41.997Z,68.99
2019-06-20T10:15:41.986Z,72.38
2019-06-20T10:16:45.824Z,71.39
2019-06-20T10:17:43.007Z,75.54
2019-06-20T10:18:41.958Z,78.03
2019-06-20T10:19:41.967Z,72.91
2019-06-20T10:20:41.935Z,71.12
2019-06-20T10:21:41.932Z,69.43
2019-06-20T10:22:41.938Z,73.61
2019-06-20T10:23:41.900Z,70.92
2019-06-20T10:24:41.893Z,73.11
2019-06-20T10:25:41.890Z,74.27
2019-06-20T10:26:41.873Z,69.69
2019-06-20T10:27:41.859Z,70.85
2019-06-20T10:28:41.858Z,68.00
2019-06-20T10:29:41.836Z,68.90
2019-06-20T10:30:41.852Z,70.03
2019-06-20T10:31:41.828Z,71.19
2019-06-20T10:32:41.905Z,68.03
2019-06-20T10:33:41.802Z,68.66
2019-06-20T10:34:41.781Z,72.35
2019-06-20T10:35:41.774Z,71.81
2019-06-20T10:36:41.779Z,71.51
2019-06-20T10:37:41.758Z,69.92
2019-06-20T10:38:41.747Z,70.62
2019-06-20T10:39:41.732Z,71.42
2019-06-20T10:40:41.716Z,69.23
2019-06-20T10:41:41.714Z,73.08
2019-06-20T10:42:41.718Z,71.51
2019-06-20T10:43:41.706Z,68.93
2019-06-20T10:44:43.196Z,71.72
2019-06-20T10:45:44.041Z,68.73
2019-06-20T10:46:42.835Z,71.51
2019-06-20T10:47:43.598Z,71.02
2019-06-20T10:48:43.087Z,69.02
2019-06-20T10:49:42.982Z,68.93
2019-06-20T10:50:42.608Z,67.13
2019-06-20T10:51:42.951Z,68.33
2019-06-20T10:52:42.560Z,68.83
2019-06-20T10:53:43.098Z,70.42
2019-06-20T10:54:43.015Z,67.43
2019-06-20T10:55:43.180Z,69.29
2019-06-20T10:56:42.284Z,70.29
2019-06-20T10:57:42.873Z,68.40
2019-06-20T10:58:42.901Z,68.73
2019-06-20T10:59:42.661Z,68.23
2019-06-20T11:00:43.053Z,68.50
2019-06-20T11:01:42.670Z,68.63
2019-06-20T11:02:42.278Z,71.09
2019-06-20T11:03:41.973Z,68.93
2019-06-20T11:04:42.406Z,72.61
2019-06-20T11:05:42.314Z,68.43
2019-06-20T11:06:41.737Z,69.02
2019-06-20T11:07:42.456Z,68.40
2019-06-20T11:08:41.800Z,67.83
2019-06-20T11:09:41.404Z,67.33
2019-06-20T11:10:42.235Z,68.33
2019-06-20T11:11:41.788Z,67.13
2019-06-20T11:12:47.857Z,67.96
2019-06-20T11:13:42.387Z,66.90
2019-06-20T11:14:42.131Z,66.97
2019-06-20T11:15:42.225Z,67.30
2019-06-20T11:16:42.190Z,67.86
2019-06-20T11:17:41.944Z,67.24
2019-06-20T11:18:41.392Z,69.36
2019-06-20T11:19:41.529Z,66.87
2019-06-20T11:20:42.659Z,66.07
2019-06-20T11:21:41.593Z,68.03
2019-06-20T11:22:41.615Z,67.96
2019-06-20T11:23:41.265Z,67.96
2019-06-20T11:24:41.245Z,65.57
2019-06-20T11:25:41.992Z,66.90
2019-06-20T11:26:41.241Z,69.59
2019-06-20T11:27:42.642Z,67.90
2019-06-20T11:28:41.449Z,67.10
2019-06-20T11:29:41.666Z,70.29
2019-06-20T11:30:52.644Z,66.80
2019-06-20T11:31:45.941Z,67.20
2019-06-20T11:32:41.160Z,65.01
2019-06-20T11:33:42.090Z,65.73
2019-06-20T11:34:42.532Z,66.93
2019-06-20T11:35:41.887Z,67.20
2019-06-20T11:36:42.358Z,68.19
2019-06-20T11:37:42.294Z,66.00
2019-06-20T11:38:42.462Z,67.50
2019-06-20T11:39:41.187Z,66.83
2019-06-20T11:40:41.651Z,67.23
2019-06-20T11:41:41.643Z,67.70
2019-06-20T11:42:41.985Z,67.80
2019-06-20T11:43:42.169Z,67.70
2019-06-20T11:44:41.040Z,65.97
2019-06-20T11:45:41.019Z,65.17
2019-06-20T11:46:41.009Z,65.67
2019-06-20T11:47:40.998Z,67.86
2019-06-20T11:48:40.987Z,68.03
2019-06-20T11:49:40.999Z,68.93
2019-06-20T11:50:42.382Z,67.13
2019-06-20T11:51:41.915Z,66.53
2019-06-20T11:52:43.984Z,65.14
2019-06-20T11:53:40.933Z,64.48
2019-06-20T11:54:40.932Z,64.58
2019-06-20T11:55:40.928Z,64.54
2019-06-20T11:56:40.900Z,64.28
2019-06-20T11:57:40.891Z,64.04
2019-06-20T11:58:40.887Z,64.84
2019-06-20T11:59:40.878Z,65.31
2019-06-20T12:00:40.860Z,63.52
2019-06-20T12:01:41.324Z,65.48
2019-06-20T12:02:42.779Z,65.15
2019-06-20T12:03:40.826Z,64.48
2019-06-20T12:04:41.523Z,64.45
2019-06-20T12:05:41.877Z,64.06
2019-06-20T12:06:41.530Z,63.76
2019-06-20T12:07:41.676Z,64.25
2019-06-20T12:08:40.775Z,63.66
2019-06-20T12:09:40.972Z,63.16
2019-06-20T12:10:40.901Z,65.02
2019-06-20T12:11:40.761Z,63.53
2019-06-20T12:12:41.119Z,64.22
2019-06-20T12:13:42.073Z,63.76
2019-06-20T12:14:41.409Z,64.55
2019-06-20T12:15:41.655Z,63.29
2019-06-20T12:16:41.352Z,63.19
2019-06-20T12:17:42.312Z,63.69
2019-06-20T12:18:41.592Z,62.86
2019-06-20T12:19:40.936Z,63.06
2019-06-20T12:20:41.135Z,67.04
2019-06-20T12:21:41.021Z,65.02
2019-06-20T12:22:41.736Z,64.72
2019-06-20T12:23:40.706Z,66.97
2019-06-20T12:24:41.663Z,62.30
2019-06-20T12:25:41.439Z,62.60
2019-06-20T12:26:40.821Z,63.17
2019-06-20T12:27:40.829Z,62.54
2019-06-20T12:28:40.781Z,59.74
2019-06-20T12:29:40.736Z,64.76
2019-06-20T12:30:41.630Z,62.29
2019-06-20T12:31:41.124Z,62.75
2019-06-20T12:32:40.755Z,60.57
2019-06-20T12:33:42.495Z,59.70
2019-06-20T12:34:40.556Z,61.39
2019-06-20T12:35:41.309Z,62.81
2019-06-20T12:36:40.959Z,59.34
2019-06-20T12:37:40.639Z,59.04
2019-06-20T12:38:41.079Z,61.52
2019-06-20T12:39:42.043Z,63.08
2019-06-20T12:40:41.226Z,65.16
2019-06-20T12:41:41.209Z,59.51
2019-06-20T12:42:41.808Z,61.16
2019-06-20T12:43:41.776Z,58.69
2019-06-20T12:44:41.638Z,58.32
2019-06-20T12:45:41.363Z,59.80
2019-06-20T12:46:40.993Z,60.14
2019-06-20T12:47:41.804Z,59.03
2019-06-20T12:48:41.278Z,57.68
2019-06-20T12:49:41.695Z,57.58
2019-06-20T12:50:41.499Z,56.76
2019-06-20T12:51:40.495Z,56.86
2019-06-20T12:52:41.325Z,57.09